Limestone, New York
Current Conditions -  °F | °C
As of 4:53 PM on Thursday 27 Nov 2014 (Local Time) from KBFD Reporting Station
Light Snow Light Snow  
Wind Chill: 21°   Ceiling: 1100
Heat Index: 29°   Visibility: 1.7mi
Dew Point: 24°   Wind: 8mph
Humidity: 82%   Direction: 280°W
Pressure: 30"   Gusts: NA
Location:  42.03°N, 78.63°W
Report Text: KBFD 272153Z AUTO 28007KT 1 3/4SM -SN BKN011 OVC021 M02/M04 A3000 RMK AO2 SLP180 P0000 T10171044
Loading
Personal Weather Stations






























Interactive Weather Map New forecast layout! Learn more

10-Day Weather Forecast

Advertisements
Track Severe Weather on mobile